createdAt,value
2018-09-10T00:01:55.540Z,4.70
2018-09-10T00:04:23.703Z,4.33
2018-09-10T00:06:51.881Z,4.28
2018-09-10T00:09:20.046Z,4.15
2018-09-10T00:11:48.193Z,4.83
2018-09-10T00:14:16.340Z,4.35
2018-09-10T00:16:44.485Z,4.50
2018-09-10T00:19:12.643Z,4.80
2018-09-10T00:21:40.792Z,4.20
2018-09-10T00:24:08.864Z,4.90
2018-09-10T00:26:37.229Z,4.00
2018-09-10T00:29:05.384Z,4.70
2018-09-10T00:31:33.475Z,4.58
2018-09-10T00:34:01.619Z,3.72
2018-09-10T00:36:29.760Z,4.40
2018-09-10T00:38:57.854Z,4.67
2018-09-10T00:41:26.000Z,4.80
2018-09-10T00:43:54.111Z,4.85
2018-09-10T00:46:22.193Z,5.25
2018-09-10T00:48:50.345Z,4.87
2018-09-10T00:51:18.509Z,4.20
2018-09-10T00:53:46.674Z,4.08
2018-09-10T00:56:14.822Z,4.87
2018-09-10T00:58:42.927Z,3.98
2018-09-10T01:01:11.025Z,4.37
2018-09-10T01:03:39.137Z,3.92
2018-09-10T01:06:07.315Z,4.12
2018-09-10T01:08:35.457Z,5.10
2018-09-10T01:11:03.576Z,4.97
2018-09-10T01:13:31.697Z,4.58
2018-09-10T01:15:59.792Z,4.00
2018-09-10T01:18:27.909Z,5.05
2018-09-10T01:20:56.012Z,4.83
2018-09-10T01:23:24.119Z,5.42
2018-09-10T01:25:52.221Z,5.10
2018-09-10T01:28:20.349Z,4.30
2018-09-10T01:30:48.576Z,4.92
2018-09-10T01:33:22.109Z,4.55
2018-09-10T01:35:50.259Z,4.45
2018-09-10T01:38:18.384Z,4.72
2018-09-10T01:40:46.534Z,4.47
2018-09-10T01:43:14.668Z,4.62
2018-09-10T01:45:42.821Z,4.35
2018-09-10T01:48:10.946Z,4.70
2018-09-10T01:50:39.142Z,5.55
2018-09-10T01:53:07.253Z,4.40
2018-09-10T01:55:35.375Z,4.65
2018-09-10T01:58:03.552Z,4.78
2018-09-10T02:00:31.745Z,3.75
2018-09-10T02:02:59.850Z,4.10
2018-09-10T02:05:27.937Z,4.92
2018-09-10T02:07:56.011Z,4.67
2018-09-10T02:10:24.110Z,5.10
2018-09-10T02:12:52.305Z,4.78
2018-09-10T02:15:20.452Z,4.87
2018-09-10T02:17:48.601Z,4.72
2018-09-10T02:20:16.813Z,4.67
2018-09-10T02:22:44.889Z,5.53
2018-09-10T02:25:13.018Z,4.53
2018-09-10T02:27:41.188Z,4.78
2018-09-10T02:30:09.328Z,4.90
2018-09-10T02:35:08.209Z,5.00
2018-09-10T02:37:36.385Z,5.00
2018-09-10T02:40:04.617Z,4.75
2018-09-10T02:42:32.786Z,5.10
2018-09-10T02:45:00.937Z,5.15
2018-09-10T02:47:29.069Z,5.05
2018-09-10T02:49:57.178Z,5.05
2018-09-10T02:52:25.298Z,7.15
2018-09-10T02:54:53.476Z,5.20
2018-09-10T02:57:21.651Z,4.42
2018-09-10T02:59:49.821Z,5.40
2018-09-10T03:02:17.947Z,5.28
2018-09-10T03:04:46.072Z,5.05
2018-09-10T03:07:15.267Z,4.92
2018-09-10T03:09:43.405Z,5.17
2018-09-10T03:12:11.552Z,5.65
2018-09-10T03:14:39.677Z,5.50
2018-09-10T03:17:07.797Z,5.30
2018-09-10T03:19:35.899Z,5.15
2018-09-10T03:22:03.980Z,5.62
2018-09-10T03:24:32.165Z,5.65
2018-09-10T03:27:00.296Z,6.05
2018-09-10T03:29:28.425Z,5.37
2018-09-10T03:31:56.629Z,5.80
2018-09-10T03:34:24.745Z,5.47
2018-09-10T03:36:53.131Z,5.60
2018-09-10T03:39:21.272Z,6.80
2018-09-10T03:41:49.347Z,6.03
2018-09-10T03:44:17.536Z,7.45
2018-09-10T03:46:45.684Z,6.55
2018-09-10T03:49:13.858Z,6.20
2018-09-10T03:51:41.963Z,5.10
2018-09-10T03:54:10.090Z,6.00
2018-09-10T03:56:38.325Z,5.53
2018-09-10T03:59:06.506Z,6.03
2018-09-10T04:01:34.687Z,9.38
2018-09-10T04:04:02.795Z,6.50
2018-09-10T04:06:30.976Z,5.10
2018-09-10T04:08:59.118Z,5.70
2018-09-10T04:11:27.253Z,5.87
2018-09-10T04:13:55.412Z,6.45
2018-09-10T04:16:23.632Z,7.00
2018-09-10T04:18:51.817Z,6.78
2018-09-10T04:21:19.942Z,5.87
2018-09-10T04:23:48.073Z,5.95
2018-09-10T04:26:16.219Z,5.55
2018-09-10T04:28:44.455Z,5.53
2018-09-10T04:31:12.667Z,6.03
2018-09-10T04:33:40.807Z,6.70
2018-09-10T04:36:09.074Z,7.67
2018-09-10T04:38:37.176Z,6.03
2018-09-10T04:41:05.362Z,6.00
2018-09-10T04:43:33.504Z,6.58
2018-09-10T04:46:01.793Z,6.20
2018-09-10T04:48:30.038Z,6.45
2018-09-10T04:50:58.136Z,5.65
2018-09-10T04:53:26.675Z,6.03
2018-09-10T04:55:54.772Z,6.00
2018-09-10T04:58:22.872Z,5.62
2018-09-10T05:00:51.117Z,5.58
2018-09-10T05:03:19.494Z,6.10
2018-09-10T05:05:47.832Z,7.00
2018-09-10T05:08:16.077Z,6.47
2018-09-10T05:10:44.227Z,6.03
2018-09-10T05:13:12.352Z,6.03
2018-09-10T05:15:40.463Z,6.95
2018-09-10T05:18:08.621Z,6.80
2018-09-10T05:20:36.765Z,7.00
2018-09-10T05:23:04.923Z,6.20
2018-09-10T05:25:33.025Z,8.28
2018-09-10T05:28:01.226Z,6.25
2018-09-10T05:30:29.637Z,7.70
2018-09-10T05:32:57.757Z,6.17
2018-09-10T05:35:25.941Z,9.88
2018-09-10T05:37:54.097Z,7.03
2018-09-10T05:40:22.268Z,5.90
2018-09-10T05:42:50.502Z,9.88
2018-09-10T05:45:18.690Z,8.58
2018-09-10T05:47:47.156Z,13.83
2018-09-10T05:50:15.318Z,6.08
2018-09-10T05:52:43.436Z,7.85
2018-09-10T05:55:11.627Z,6.87
2018-09-10T05:57:39.744Z,8.03
2018-09-10T06:00:09.266Z,5.72
2018-09-10T06:02:37.640Z,5.30
2018-09-10T06:05:05.819Z,6.08
2018-09-10T06:07:34.032Z,4.92
2018-09-10T06:10:02.186Z,4.67
2018-09-10T06:12:30.500Z,4.50
2018-09-10T06:14:58.695Z,5.33
2018-09-10T06:17:26.886Z,4.62
2018-09-10T06:19:55.053Z,5.25
2018-09-10T06:22:23.194Z,5.83
2018-09-10T06:24:51.321Z,5.23
2018-09-10T06:27:19.437Z,4.47
2018-09-10T06:29:47.568Z,4.67
2018-09-10T06:32:15.687Z,5.33
2018-09-10T06:34:43.988Z,3.93
2018-09-10T06:37:12.185Z,4.57
2018-09-10T06:39:40.283Z,5.07
2018-09-10T06:42:08.403Z,4.57
2018-09-10T06:44:36.523Z,6.27
2018-09-10T06:47:04.671Z,6.17
2018-09-10T06:49:32.823Z,7.30
2018-09-10T06:52:00.940Z,6.93
2018-09-10T06:54:29.079Z,7.13
2018-09-10T06:56:57.199Z,5.20
2018-09-10T06:59:25.283Z,8.83
2018-09-10T07:01:53.394Z,5.47
2018-09-10T07:04:21.517Z,6.07
2018-09-10T07:06:50.160Z,5.87
2018-09-10T07:09:18.298Z,7.37
2018-09-10T07:11:46.401Z,5.10
2018-09-10T07:14:14.454Z,5.60
2018-09-10T07:16:42.596Z,5.63
2018-09-10T07:19:10.742Z,5.20
2018-09-10T07:21:38.849Z,5.43
2018-09-10T07:24:06.948Z,5.43
2018-09-10T07:26:35.057Z,5.43
2018-09-10T07:29:03.145Z,5.60
2018-09-10T07:31:31.237Z,4.53
2018-09-10T07:33:59.376Z,5.93
2018-09-10T07:36:27.514Z,7.53
2018-09-10T07:38:55.763Z,6.03
2018-09-10T07:41:23.849Z,5.30
2018-09-10T07:43:52.206Z,4.77
2018-09-10T07:46:20.473Z,4.77
2018-09-10T07:48:48.646Z,3.83
2018-09-10T07:51:16.742Z,2.97
2018-09-10T07:53:44.866Z,2.93
2018-09-10T07:56:12.952Z,3.13
2018-09-10T07:58:41.056Z,3.37
2018-09-10T08:01:09.193Z,2.90
2018-09-10T08:03:37.362Z,3.90
2018-09-10T08:06:05.517Z,5.50
2018-09-10T08:08:33.608Z,6.40
2018-09-10T08:11:01.720Z,3.23
2018-09-10T08:13:29.836Z,3.30
2018-09-10T08:15:57.945Z,3.50
2018-09-10T08:18:26.295Z,3.60
2018-09-10T08:20:54.482Z,5.40
2018-09-10T08:23:22.634Z,3.30
2018-09-10T08:25:50.824Z,3.30
2018-09-10T08:28:18.966Z,3.37
2018-09-10T08:30:47.097Z,3.97
2018-09-10T08:33:15.263Z,2.37
2018-09-10T08:35:43.379Z,2.60
2018-09-10T08:38:11.484Z,4.50
2018-09-10T08:40:39.591Z,3.53
2018-09-10T08:43:07.658Z,2.93
2018-09-10T08:45:35.830Z,3.00
2018-09-10T08:48:03.994Z,3.50
2018-09-10T08:50:32.129Z,2.90
2018-09-10T08:53:00.338Z,3.40
2018-09-10T08:55:28.642Z,2.50
2018-09-10T08:57:56.637Z,2.03
2018-09-10T09:00:26.138Z,3.10
2018-09-10T09:02:54.274Z,3.27
2018-09-10T09:05:22.390Z,3.40
2018-09-10T09:07:50.491Z,2.43
2018-09-10T09:10:18.595Z,3.67
2018-09-10T09:12:46.739Z,1.80
2018-09-10T09:15:14.874Z,2.20
2018-09-10T09:17:43.035Z,2.57
2018-09-10T09:20:11.374Z,2.10
2018-09-10T09:22:39.506Z,2.03
2018-09-10T09:25:07.624Z,2.13
2018-09-10T09:27:35.785Z,2.80
2018-09-10T09:30:04.099Z,2.03
2018-09-10T09:32:32.192Z,1.90
2018-09-10T09:35:00.592Z,3.03
2018-09-10T09:37:34.128Z,4.40
2018-09-10T09:40:07.491Z,2.33
2018-09-10T09:42:41.019Z,2.20
2018-09-10T09:45:14.454Z,2.80
2018-09-10T09:47:42.618Z,2.53
2018-09-10T09:50:10.791Z,1.93
2018-09-10T09:52:38.936Z,2.17
2018-09-10T09:55:07.063Z,2.30
2018-09-10T09:57:35.155Z,2.17
2018-09-10T10:00:03.419Z,2.37
2018-09-10T10:02:36.966Z,2.20
2018-09-10T10:05:05.091Z,2.30
2018-09-10T10:07:33.203Z,1.83
2018-09-10T10:10:01.395Z,5.37
2018-09-10T10:12:29.536Z,3.60
2018-09-10T10:14:57.707Z,2.80
2018-09-10T10:17:25.817Z,2.13
2018-09-10T10:19:53.969Z,2.40
2018-09-10T10:22:22.112Z,2.03
2018-09-10T10:24:50.246Z,2.10
2018-09-10T10:27:18.472Z,1.80
2018-09-10T10:29:46.612Z,2.27
2018-09-10T10:32:14.765Z,2.40
2018-09-10T10:34:42.920Z,2.00
2018-09-10T10:37:11.266Z,2.20
2018-09-10T10:39:39.323Z,3.67
2018-09-10T10:42:07.434Z,2.63
2018-09-10T10:44:35.518Z,1.90
2018-09-10T10:47:03.650Z,2.30
2018-09-10T10:49:31.806Z,1.77
2018-09-10T10:51:59.893Z,2.13
2018-09-10T10:54:28.069Z,3.40
2018-09-10T10:56:56.200Z,2.47
2018-09-10T10:59:24.314Z,2.23
2018-09-10T11:01:52.431Z,2.23
2018-09-10T11:04:20.577Z,2.17
2018-09-10T11:06:49.237Z,1.77
2018-09-10T11:09:17.337Z,4.00
2018-09-10T11:11:45.479Z,2.30
2018-09-10T11:14:13.568Z,1.70
2018-09-10T11:16:41.738Z,2.37
2018-09-10T11:19:09.821Z,2.90
2018-09-10T11:21:37.963Z,2.23
2018-09-10T11:24:06.195Z,2.30
2018-09-10T11:26:34.385Z,2.50
2018-09-10T11:29:02.542Z,4.03
2018-09-10T11:31:30.666Z,2.50
2018-09-10T11:33:58.819Z,2.87
2018-09-10T11:36:26.931Z,2.07
2018-09-10T11:38:55.050Z,2.10
2018-09-10T11:41:23.217Z,2.33
2018-09-10T11:43:51.365Z,2.10
2018-09-10T11:46:19.469Z,1.90
2018-09-10T11:48:47.741Z,1.70
2018-09-10T11:51:15.912Z,1.93
2018-09-10T11:53:44.045Z,2.30
2018-09-10T11:56:12.151Z,2.60
2018-09-10T11:58:40.235Z,4.13
2018-09-10T12:01:08.363Z,2.60
2018-09-10T12:03:36.492Z,2.37
2018-09-10T12:06:04.576Z,3.03
2018-09-10T12:08:32.670Z,1.80
2018-09-10T12:11:00.781Z,2.20
2018-09-10T12:13:28.974Z,2.10
2018-09-10T12:15:57.104Z,2.10
2018-09-10T12:18:25.224Z,2.43
2018-09-10T12:20:53.332Z,3.40
2018-09-10T12:23:21.465Z,1.73
2018-09-10T12:25:49.680Z,2.27
2018-09-10T12:28:17.954Z,2.67
2018-09-10T12:30:46.035Z,2.27
2018-09-10T12:33:14.160Z,2.00
2018-09-10T12:35:42.239Z,2.20
2018-09-10T12:38:10.365Z,2.50
2018-09-10T12:40:38.475Z,1.93
2018-09-10T12:43:06.551Z,3.77
2018-09-10T12:45:35.131Z,1.90
2018-09-10T12:48:03.210Z,1.80
2018-09-10T12:50:31.315Z,2.83
2018-09-10T12:52:59.428Z,2.17
2018-09-10T12:55:27.495Z,2.73
2018-09-10T12:57:55.571Z,3.80
2018-09-10T13:00:23.738Z,3.97
2018-09-10T13:02:51.831Z,3.27
2018-09-10T13:05:19.893Z,2.40
2018-09-10T13:07:47.977Z,2.00
2018-09-10T13:10:16.107Z,2.47
2018-09-10T13:12:44.263Z,2.10
2018-09-10T13:15:12.340Z,2.27
2018-09-10T13:17:40.435Z,1.47
2018-09-10T13:20:08.512Z,2.83
2018-09-10T13:22:36.595Z,2.73
2018-09-10T13:25:04.762Z,2.63
2018-09-10T13:27:33.032Z,2.30
2018-09-10T13:30:01.123Z,3.00
2018-09-10T13:32:29.209Z,1.60
2018-09-10T13:34:57.256Z,2.90
2018-09-10T13:37:25.315Z,3.50
2018-09-10T13:39:53.490Z,2.13
2018-09-10T13:42:21.815Z,2.20
2018-09-10T13:44:50.226Z,1.63
2018-09-10T13:47:18.420Z,2.23
2018-09-10T13:49:46.480Z,2.43
2018-09-10T13:52:14.770Z,2.13
2018-09-10T13:54:42.992Z,2.23
2018-09-10T13:57:11.147Z,3.03
2018-09-10T13:59:39.243Z,2.47
2018-09-10T14:02:07.376Z,2.33
2018-09-10T14:04:35.716Z,2.33
2018-09-10T14:07:03.899Z,2.50
2018-09-10T14:09:31.991Z,2.37
2018-09-10T14:12:00.076Z,2.83
2018-09-10T14:14:28.234Z,2.20
2018-09-10T14:16:56.454Z,2.20
2018-09-10T14:19:24.795Z,3.87
2018-09-10T14:21:52.927Z,2.40
2018-09-10T14:24:21.579Z,1.60
2018-09-10T14:26:49.788Z,1.70
2018-09-10T14:29:17.914Z,1.80
2018-09-10T14:31:46.214Z,1.60
2018-09-10T14:34:14.323Z,1.87
2018-09-10T14:36:42.608Z,3.10
2018-09-10T14:39:10.763Z,2.87
2018-09-10T14:41:39.168Z,2.27
2018-09-10T14:44:07.398Z,2.47
2018-09-10T14:46:35.551Z,1.67
2018-09-10T14:49:03.821Z,5.27
2018-09-10T14:51:31.986Z,2.80
2018-09-10T14:54:00.063Z,1.30
2018-09-10T14:56:28.252Z,3.67
2018-09-10T14:58:56.395Z,1.73
2018-09-10T15:01:24.585Z,2.13
2018-09-10T15:03:52.858Z,1.80
2018-09-10T15:06:21.034Z,3.20
2018-09-10T15:08:49.187Z,2.20
2018-09-10T15:11:17.346Z,1.73
2018-09-10T15:13:45.465Z,2.70
2018-09-10T15:16:13.672Z,2.23
2018-09-10T15:18:41.873Z,2.03
2018-09-10T15:21:10.063Z,1.77
2018-09-10T15:23:38.225Z,1.97
2018-09-10T15:26:06.458Z,1.70
2018-09-10T15:28:34.549Z,2.00
2018-09-10T15:31:02.714Z,2.10
2018-09-10T15:33:30.851Z,3.30
2018-09-10T15:35:59.027Z,1.80
2018-09-10T15:38:27.335Z,1.80
2018-09-10T15:40:55.543Z,5.73
2018-09-10T15:43:23.963Z,1.97
2018-09-10T15:45:52.540Z,2.40
2018-09-10T15:48:20.681Z,2.03
2018-09-10T15:50:48.993Z,3.57
2018-09-10T15:53:17.368Z,3.70
2018-09-10T15:55:45.542Z,1.83
2018-09-10T15:58:13.936Z,3.57
2018-09-10T16:00:42.054Z,2.30
2018-09-10T16:03:10.203Z,1.67
2018-09-10T16:05:38.800Z,2.10
2018-09-10T16:08:06.899Z,4.33
2018-09-10T16:10:35.082Z,3.13
2018-09-10T16:13:03.374Z,2.50
2018-09-10T16:15:31.563Z,2.17
2018-09-10T16:17:59.767Z,5.43
2018-09-10T16:20:28.224Z,2.30
2018-09-10T16:22:56.389Z,2.47
2018-09-10T16:25:24.448Z,3.33
2018-09-10T16:27:52.854Z,2.40
2018-09-10T16:30:20.904Z,3.83
2018-09-10T16:32:50.080Z,2.73
2018-09-10T16:35:18.687Z,2.20
2018-09-10T16:37:46.911Z,2.67
2018-09-10T16:40:15.027Z,3.17
2018-09-10T16:42:43.249Z,2.30
2018-09-10T16:45:11.463Z,2.60
2018-09-10T16:47:39.677Z,2.57
2018-09-10T16:50:07.857Z,2.87
2018-09-10T16:52:35.965Z,2.57
2018-09-10T16:55:05.125Z,2.00
2018-09-10T16:57:33.162Z,3.33
2018-09-10T17:00:01.359Z,2.10
2018-09-10T17:02:29.546Z,2.60
2018-09-10T17:04:57.650Z,2.77
2018-09-10T17:07:25.835Z,2.43
2018-09-10T17:09:55.768Z,2.50
2018-09-10T17:12:24.567Z,2.07
2018-09-10T17:14:52.746Z,4.20
2018-09-10T17:17:20.919Z,4.00
2018-09-10T17:19:49.009Z,3.83
2018-09-10T17:22:17.144Z,2.13
2018-09-10T17:24:45.338Z,2.70
2018-09-10T17:27:13.490Z,2.50
2018-09-10T17:29:41.707Z,2.53
2018-09-10T17:32:09.830Z,2.00
2018-09-10T17:34:38.099Z,2.33
2018-09-10T17:37:06.222Z,2.20
2018-09-10T17:39:34.444Z,2.57
2018-09-10T17:42:02.531Z,2.63
2018-09-10T17:44:30.632Z,2.47
2018-09-10T17:46:58.951Z,2.70
2018-09-10T17:49:27.043Z,3.93
2018-09-10T17:51:55.126Z,2.93
2018-09-10T17:54:23.425Z,2.57
2018-09-10T17:56:51.539Z,2.83
2018-09-10T17:59:19.689Z,2.53
2018-09-10T18:01:47.912Z,2.37
2018-09-10T18:04:16.004Z,2.97
2018-09-10T18:06:44.231Z,2.40
2018-09-10T18:09:13.130Z,4.53
2018-09-10T18:11:41.808Z,5.00
2018-09-10T18:14:09.929Z,3.77
2018-09-10T18:16:38.061Z,2.30
2018-09-10T18:19:06.158Z,2.87
2018-09-10T18:21:34.867Z,2.30
2018-09-10T18:24:03.487Z,3.87
2018-09-10T18:26:31.603Z,2.60
2018-09-10T18:28:59.735Z,2.90
2018-09-10T18:31:27.847Z,2.03
2018-09-10T18:33:55.935Z,2.70
2018-09-10T18:36:24.122Z,2.57
2018-09-10T18:38:53.167Z,2.77
2018-09-10T18:41:21.583Z,3.07
2018-09-10T18:43:49.729Z,3.23
2018-09-10T18:46:17.843Z,3.67
2018-09-10T18:48:46.009Z,3.50
2018-09-10T18:51:14.325Z,4.40
2018-09-10T18:53:42.781Z,3.20
2018-09-10T18:56:10.837Z,2.70
2018-09-10T18:58:38.964Z,3.17
2018-09-10T19:01:07.239Z,2.70
2018-09-10T19:03:35.209Z,2.47
2018-09-10T19:06:03.327Z,3.90
2018-09-10T19:08:31.437Z,2.90
2018-09-10T19:10:59.504Z,2.60
2018-09-10T19:13:27.582Z,3.10
2018-09-10T19:15:55.652Z,2.83
2018-09-10T19:18:28.045Z,2.67
2018-09-10T19:20:56.612Z,2.70
2018-09-10T19:23:24.681Z,3.30
2018-09-10T19:25:52.803Z,4.80
2018-09-10T19:28:20.920Z,3.23
2018-09-10T19:30:49.002Z,3.13
2018-09-10T19:33:17.109Z,3.10
2018-09-10T19:35:45.195Z,3.47
2018-09-10T19:38:13.485Z,3.03
2018-09-10T19:40:41.570Z,2.60
2018-09-10T19:43:09.676Z,4.77
2018-09-10T19:45:37.741Z,2.77
2018-09-10T19:48:05.963Z,2.80
2018-09-10T19:50:34.066Z,3.17
2018-09-10T19:53:02.149Z,2.80
2018-09-10T19:55:30.223Z,3.20
2018-09-10T19:57:58.371Z,3.10
2018-09-10T20:00:26.456Z,3.13
2018-09-10T20:02:54.539Z,2.80
2018-09-10T20:05:22.657Z,3.10
2018-09-10T20:07:50.743Z,3.77
2018-09-10T20:10:18.860Z,4.00
2018-09-10T20:12:46.907Z,4.20
2018-09-10T20:15:15.025Z,4.17
2018-09-10T20:17:43.073Z,3.40
2018-09-10T20:20:11.131Z,3.00
2018-09-10T20:22:39.266Z,2.70
2018-09-10T20:25:08.007Z,2.50
2018-09-10T20:27:36.126Z,2.87
2018-09-10T20:30:04.467Z,3.27
2018-09-10T20:32:32.609Z,3.23
2018-09-10T20:35:00.772Z,3.57
2018-09-10T20:37:28.908Z,3.20
2018-09-10T20:39:57.008Z,4.37
2018-09-10T20:42:25.163Z,3.57
2018-09-10T20:44:53.290Z,7.00
2018-09-10T20:47:21.420Z,3.20
2018-09-10T20:49:49.620Z,4.07
2018-09-10T20:52:18.043Z,4.70
2018-09-10T20:54:46.076Z,3.40
2018-09-10T20:57:14.131Z,3.17
2018-09-10T20:59:42.227Z,2.77
2018-09-10T21:02:10.360Z,2.97
2018-09-10T21:07:13.003Z,3.03
2018-09-10T21:09:41.153Z,4.10
2018-09-10T21:12:09.272Z,4.93
2018-09-10T21:14:37.397Z,2.80
2018-09-10T21:17:05.495Z,3.30
2018-09-10T21:19:33.664Z,3.30
2018-09-10T21:22:01.763Z,3.73
2018-09-10T21:24:29.848Z,3.73
2018-09-10T21:26:57.974Z,3.33
2018-09-10T21:29:26.094Z,7.97
2018-09-10T21:31:54.248Z,2.97
2018-09-10T21:34:22.352Z,4.20
2018-09-10T21:36:50.460Z,3.37
2018-09-10T21:39:18.602Z,3.47
2018-09-10T21:41:46.739Z,3.70
2018-09-10T21:44:14.853Z,4.20
2018-09-10T21:46:42.995Z,4.30
2018-09-10T21:49:11.090Z,3.17
2018-09-10T21:51:39.155Z,3.10
2018-09-10T21:54:07.282Z,3.43
2018-09-10T21:56:35.404Z,3.83
2018-09-10T21:59:03.508Z,4.43
2018-09-10T22:01:31.604Z,3.47
2018-09-10T22:03:59.695Z,4.63
2018-09-10T22:06:27.837Z,5.60
2018-09-10T22:08:55.923Z,3.33
2018-09-10T22:11:24.007Z,3.73
2018-09-10T22:13:52.133Z,3.77
2018-09-10T22:16:20.228Z,3.53
2018-09-10T22:18:48.377Z,4.30
2018-09-10T22:21:16.544Z,4.43
2018-09-10T22:23:44.665Z,3.63
2018-09-10T22:26:12.743Z,3.10
2018-09-10T22:28:40.881Z,3.53
2018-09-10T22:31:08.956Z,5.57
2018-09-10T22:33:37.061Z,5.43
2018-09-10T22:36:05.204Z,4.20
2018-09-10T22:38:33.358Z,3.87
2018-09-10T22:41:01.474Z,4.20
2018-09-10T22:43:29.625Z,4.57
2018-09-10T22:45:57.749Z,4.67
2018-09-10T22:48:25.823Z,5.03
2018-09-10T22:50:53.952Z,3.73
2018-09-10T22:53:22.102Z,3.53
2018-09-10T22:55:50.225Z,3.73
2018-09-10T22:58:18.291Z,5.93
2018-09-10T23:00:46.395Z,4.20
2018-09-10T23:03:14.515Z,3.17
2018-09-10T23:05:42.579Z,2.80
2018-09-10T23:08:10.671Z,3.30
2018-09-10T23:10:38.802Z,2.80
2018-09-10T23:13:07.312Z,3.17
2018-09-10T23:15:35.446Z,4.10
2018-09-10T23:18:03.564Z,4.10
2018-09-10T23:20:31.733Z,3.50
2018-09-10T23:22:59.846Z,3.63
2018-09-10T23:25:27.960Z,3.53
2018-09-10T23:27:56.046Z,3.90
2018-09-10T23:30:24.128Z,3.43
2018-09-10T23:32:52.236Z,3.53
2018-09-10T23:35:20.373Z,3.50
2018-09-10T23:37:48.435Z,3.77
2018-09-10T23:40:16.560Z,3.60
2018-09-10T23:42:44.643Z,3.73
2018-09-10T23:45:12.783Z,3.60
2018-09-10T23:47:40.880Z,3.27
2018-09-10T23:50:09.020Z,3.63
2018-09-10T23:52:37.944Z,4.17
2018-09-10T23:55:06.038Z,3.20
2018-09-10T23:57:34.409Z,3.27
